createdAt,value
2023-03-02T00:02:48.616Z,0.72
2023-03-02T00:06:28.278Z,0.78
2023-03-02T00:10:35.722Z,0.77
2023-03-02T00:14:26.295Z,0.82
2023-03-02T00:18:22.453Z,0.88
2023-03-02T00:22:11.867Z,0.91
2023-03-02T00:26:26.769Z,0.92
2023-03-02T00:29:49.715Z,0.87
2023-03-02T00:33:05.437Z,0.83
2023-03-02T00:35:41.487Z,0.81
2023-03-02T00:38:14.433Z,0.83
2023-03-02T00:40:48.374Z,0.84
2023-03-02T00:43:19.011Z,0.86
2023-03-02T00:45:52.142Z,0.90
2023-03-02T00:48:28.670Z,0.94
2023-03-02T00:51:01.576Z,0.98
2023-03-02T00:53:31.141Z,1.01
2023-03-02T00:56:02.748Z,1.01
2023-03-02T00:58:36.486Z,0.97
2023-03-02T01:01:15.134Z,0.92
2023-03-02T01:10:42.490Z,0.84
2023-03-02T01:13:13.863Z,0.83
2023-03-02T01:15:45.296Z,0.84
2023-03-02T01:18:16.397Z,0.85
2023-03-02T01:20:48.295Z,0.84
2023-03-02T01:23:21.409Z,0.88
2023-03-02T01:25:54.955Z,0.93
2023-03-02T01:28:29.736Z,1.01
2023-03-02T01:31:01.786Z,1.08
2023-03-02T01:33:34.749Z,1.10
2023-03-02T01:36:06.734Z,1.08
2023-03-02T01:38:37.568Z,1.04
2023-03-02T01:41:10.768Z,1.00
2023-03-02T01:43:41.975Z,1.00
2023-03-02T01:46:15.437Z,0.97
2023-03-02T01:49:02.669Z,0.91
2023-03-02T01:51:46.633Z,0.92
2023-03-02T01:54:23.466Z,0.95
2023-03-02T01:57:03.958Z,1.00
2023-03-02T01:59:37.790Z,1.04
2023-03-02T02:02:12.273Z,1.06
2023-03-02T02:04:47.665Z,1.05
2023-03-02T02:07:20.673Z,1.03
2023-03-02T02:09:54.723Z,1.02
2023-03-02T02:12:26.959Z,1.02
2023-03-02T02:15:01.091Z,1.04
2023-03-02T02:17:34.265Z,1.08
2023-03-02T02:20:29.481Z,1.11
2023-03-02T02:23:21.572Z,1.15
2023-03-02T02:25:55.198Z,1.17
2023-03-02T02:28:40.308Z,1.20
2023-03-02T02:31:21.623Z,1.15
2023-03-02T02:33:58.512Z,1.05
2023-03-02T02:36:34.393Z,1.05
2023-03-02T02:39:10.837Z,1.04
2023-03-02T02:41:42.125Z,1.07
2023-03-02T02:44:18.095Z,1.04
2023-03-02T02:46:50.356Z,1.03
2023-03-02T02:49:34.624Z,1.04
2023-03-02T02:52:08.226Z,1.03
2023-03-02T02:54:41.360Z,0.99
2023-03-02T02:57:18.150Z,1.00
2023-03-02T02:59:55.732Z,1.02
2023-03-02T03:02:31.713Z,1.00
2023-03-02T03:05:07.519Z,0.96
2023-03-02T03:07:37.583Z,0.95
2023-03-02T03:10:31.008Z,0.95
2023-03-02T03:13:02.167Z,0.87
2023-03-02T03:15:35.584Z,0.84
2023-03-02T03:18:06.357Z,0.79
2023-03-02T03:20:38.164Z,0.79
2023-03-02T03:23:09.484Z,0.86
2023-03-02T03:25:41.737Z,0.87
2023-03-02T03:28:14.324Z,0.89
2023-03-02T03:30:44.974Z,0.90
2023-03-02T03:33:17.747Z,0.94
2023-03-02T03:35:49.689Z,0.97
2023-03-02T03:38:21.906Z,1.00
2023-03-02T03:40:56.109Z,1.01
2023-03-02T03:43:27.576Z,0.93
2023-03-02T03:45:58.236Z,0.89
2023-03-02T03:48:29.320Z,0.91
2023-03-02T03:51:02.542Z,0.93
2023-03-02T03:53:33.453Z,0.97
2023-03-02T03:56:04.541Z,1.02
2023-03-02T03:58:35.977Z,1.04
2023-03-02T04:01:07.535Z,1.10
2023-03-02T04:03:38.953Z,1.16
2023-03-02T04:06:19.346Z,1.21
2023-03-02T04:08:50.430Z,1.23
2023-03-02T04:11:21.220Z,1.26
2023-03-02T04:13:51.109Z,1.28
2023-03-02T04:16:21.932Z,1.26
2023-03-02T04:18:53.109Z,1.27
2023-03-02T04:21:25.173Z,1.31
2023-03-02T04:23:57.895Z,1.35
2023-03-02T04:26:29.384Z,1.38
2023-03-02T04:29:04.231Z,1.39
2023-03-02T04:31:34.780Z,1.37
2023-03-02T04:34:06.996Z,1.35
2023-03-02T04:36:41.331Z,1.34
2023-03-02T04:39:18.882Z,1.39
2023-03-02T04:41:53.061Z,1.40
2023-03-02T04:44:25.780Z,1.33
2023-03-02T04:46:58.699Z,1.23
2023-03-02T04:49:29.134Z,1.16
2023-03-02T04:52:00.391Z,1.11
2023-03-02T04:54:33.846Z,1.07
2023-03-02T04:57:05.557Z,1.02
2023-03-02T04:59:35.742Z,0.97
2023-03-02T05:02:06.223Z,0.97
2023-03-02T05:04:36.794Z,0.97
2023-03-02T05:07:08.094Z,0.98
2023-03-02T05:09:40.579Z,0.99
2023-03-02T05:12:10.288Z,0.97
2023-03-02T05:14:40.588Z,0.94
2023-03-02T05:17:20.830Z,0.99
2023-03-02T05:19:52.308Z,1.05
2023-03-02T05:22:22.747Z,1.12
2023-03-02T05:24:53.753Z,1.18
2023-03-02T05:27:24.790Z,1.15
2023-03-02T05:29:55.205Z,1.04
2023-03-02T05:32:25.905Z,0.95
2023-03-02T05:34:57.328Z,0.86
2023-03-02T05:37:29.547Z,0.81
2023-03-02T05:40:00.552Z,0.80
2023-03-02T05:42:31.060Z,0.84
2023-03-02T05:45:01.583Z,0.90
2023-03-02T05:47:31.322Z,0.94
2023-03-02T05:50:02.914Z,0.96
2023-03-02T05:52:33.510Z,0.90
2023-03-02T05:55:04.378Z,0.92
2023-03-02T05:57:36.038Z,0.94
2023-03-02T06:00:07.324Z,0.97
2023-03-02T06:02:42.818Z,1.06
2023-03-02T06:05:16.159Z,1.12
2023-03-02T06:07:49.278Z,1.17
2023-03-02T06:10:19.914Z,1.24
2023-03-02T06:12:49.348Z,1.35
2023-03-02T06:15:19.252Z,1.40
2023-03-02T06:17:51.684Z,1.36
2023-03-02T06:20:22.089Z,1.37
2023-03-02T06:22:51.442Z,1.47
2023-03-02T06:25:25.007Z,1.55
2023-03-02T06:27:57.341Z,1.65
2023-03-02T06:30:28.351Z,1.79
2023-03-02T06:33:00.284Z,1.93
2023-03-02T06:35:31.376Z,2.05
2023-03-02T06:38:00.414Z,2.18
2023-03-02T06:40:32.386Z,2.24
2023-03-02T06:43:04.211Z,2.32
2023-03-02T06:45:38.185Z,2.44
2023-03-02T06:48:08.434Z,2.55
2023-03-02T06:50:38.225Z,2.65
2023-03-02T06:53:09.370Z,2.89
2023-03-02T06:55:40.768Z,3.03
2023-03-02T06:58:15.030Z,3.33
2023-03-02T07:00:46.864Z,4.17
2023-03-02T07:03:18.253Z,6.49
2023-03-02T07:05:49.283Z,7.70
2023-03-02T07:08:19.315Z,8.27
2023-03-02T07:10:50.179Z,8.90
2023-03-02T07:13:21.883Z,10.60
2023-03-02T07:15:52.939Z,12.15
2023-03-02T07:18:24.417Z,12.70
2023-03-02T07:20:56.373Z,13.48
2023-03-02T07:23:27.733Z,12.38
2023-03-02T07:26:01.296Z,11.58
2023-03-02T07:28:31.815Z,11.44
2023-03-02T07:31:01.684Z,11.68
2023-03-02T07:33:34.733Z,13.54
2023-03-02T07:36:04.698Z,14.64
2023-03-02T07:38:35.419Z,13.81
2023-03-02T07:41:16.212Z,15.04
2023-03-02T07:43:49.243Z,17.01
2023-03-02T07:46:20.655Z,16.78
2023-03-02T07:48:51.968Z,15.40
2023-03-02T07:51:22.388Z,14.68
2023-03-02T07:53:56.489Z,14.79
2023-03-02T07:56:26.927Z,14.08
2023-03-02T07:58:59.462Z,13.47
2023-03-02T08:01:30.967Z,12.65
2023-03-02T08:04:01.677Z,12.00
2023-03-02T08:06:32.881Z,11.24
2023-03-02T08:09:05.256Z,10.45
2023-03-02T08:11:37.977Z,9.36
2023-03-02T08:14:07.545Z,8.52
2023-03-02T08:16:38.017Z,7.95
2023-03-02T08:19:09.541Z,7.64
2023-03-02T08:21:40.063Z,7.41
2023-03-02T08:24:12.902Z,7.55
2023-03-02T08:26:43.558Z,7.96
2023-03-02T08:29:16.015Z,8.62
2023-03-02T08:31:49.075Z,10.59
2023-03-02T08:34:19.131Z,13.15
2023-03-02T08:36:50.213Z,15.27
2023-03-02T08:39:22.951Z,16.57
2023-03-02T08:41:54.386Z,18.04
2023-03-02T08:44:27.305Z,19.75
2023-03-02T08:47:03.165Z,21.14
2023-03-02T08:49:48.007Z,22.62
2023-03-02T08:52:42.393Z,24.27
2023-03-02T08:55:19.051Z,25.51
2023-03-02T08:58:00.129Z,26.37
2023-03-02T09:00:37.158Z,26.86
2023-03-02T09:03:23.970Z,26.66
2023-03-02T09:06:42.768Z,26.60
2023-03-02T09:09:30.939Z,25.51
2023-03-02T09:12:42.630Z,26.21
2023-03-02T09:15:53.765Z,27.17
2023-03-02T09:18:45.249Z,27.77
2023-03-02T09:21:42.088Z,28.11
2023-03-02T09:24:18.146Z,27.94
2023-03-02T09:26:59.293Z,27.95
2023-03-02T09:29:32.356Z,28.11
2023-03-02T09:32:17.349Z,28.70
2023-03-02T09:34:50.210Z,29.52
2023-03-02T09:37:25.604Z,29.60
2023-03-02T09:39:57.404Z,29.58
2023-03-02T09:43:06.429Z,29.80
2023-03-02T09:46:17.337Z,30.43
2023-03-02T09:57:21.371Z,31.17
2023-03-02T10:00:27.508Z,31.61
2023-03-02T10:03:16.692Z,31.34
2023-03-02T10:05:59.545Z,31.31
2023-03-02T10:08:40.031Z,31.64
2023-03-02T10:11:39.888Z,32.11
2023-03-02T10:14:23.778Z,32.08
2023-03-02T10:17:15.026Z,31.99
2023-03-02T10:20:00.506Z,31.94
2023-03-02T10:22:45.388Z,32.08
2023-03-02T10:25:51.508Z,32.14
2023-03-02T10:28:37.788Z,31.52
2023-03-02T10:31:25.431Z,31.29
2023-03-02T10:33:56.248Z,30.69
2023-03-02T10:36:31.056Z,30.51
2023-03-02T10:39:05.991Z,30.38
2023-03-02T10:41:41.880Z,30.32
2023-03-02T10:44:41.395Z,30.20
2023-03-02T10:47:26.792Z,30.34
2023-03-02T10:50:08.940Z,29.74
2023-03-02T10:52:59.459Z,29.67
2023-03-02T10:55:56.066Z,29.42
2023-03-02T10:58:38.614Z,29.39
2023-03-02T11:01:24.541Z,29.53
2023-03-02T11:04:18.534Z,29.32
2023-03-02T11:06:55.339Z,29.04
2023-03-02T11:09:33.725Z,29.09
2023-03-02T11:12:43.668Z,29.33
2023-03-02T11:15:32.533Z,29.52
2023-03-02T11:18:27.721Z,29.14
2023-03-02T11:21:16.813Z,28.54
2023-03-02T11:24:21.966Z,28.46
2023-03-02T11:27:06.148Z,28.65
2023-03-02T11:30:01.241Z,28.70
2023-03-02T11:33:05.995Z,28.51
2023-03-02T11:36:28.279Z,27.89
2023-03-02T11:39:19.872Z,26.94
2023-03-02T11:41:58.936Z,26.10
2023-03-02T11:44:35.721Z,25.82
2023-03-02T11:47:16.516Z,25.87
2023-03-02T11:50:00.878Z,25.83
2023-03-02T11:52:40.452Z,25.11
2023-03-02T11:55:14.293Z,24.71
2023-03-02T11:57:50.852Z,24.90
2023-03-02T12:00:33.383Z,24.95
2023-03-02T12:03:08.912Z,24.39
2023-03-02T12:05:40.787Z,24.07
2023-03-02T12:08:16.268Z,23.96
2023-03-02T12:11:23.128Z,23.65
2023-03-02T12:13:58.012Z,23.36
2023-03-02T12:16:44.459Z,23.08
2023-03-02T12:19:41.214Z,22.58
2023-03-02T12:22:34.059Z,22.31
2023-03-02T12:25:25.406Z,21.90
2023-03-02T12:28:03.108Z,21.34
2023-03-02T12:30:37.034Z,21.21
2023-03-02T12:33:12.224Z,21.47
2023-03-02T12:35:49.176Z,21.62
2023-03-02T12:38:29.938Z,21.89
2023-03-02T12:41:20.307Z,22.28
2023-03-02T12:44:23.485Z,21.56
2023-03-02T12:46:54.268Z,20.77
2023-03-02T12:49:46.401Z,20.35
2023-03-02T12:52:38.093Z,19.90
2023-03-02T12:55:22.523Z,19.40
2023-03-02T12:58:03.632Z,19.20
2023-03-02T13:00:41.316Z,19.15
2023-03-02T13:03:19.159Z,19.31
2023-03-02T13:05:52.855Z,19.29
2023-03-02T13:08:29.079Z,19.20
2023-03-02T13:11:02.841Z,19.16
2023-03-02T13:13:40.621Z,18.50
2023-03-02T13:16:41.747Z,17.79
2023-03-02T13:19:17.299Z,17.85
2023-03-02T13:21:47.343Z,18.06
2023-03-02T13:24:49.143Z,17.98
2023-03-02T13:27:26.411Z,17.80
2023-03-02T13:30:09.737Z,17.58
2023-03-02T13:32:42.448Z,17.50
2023-03-02T13:35:29.200Z,17.04
2023-03-02T13:38:05.207Z,16.14
2023-03-02T13:40:52.439Z,15.55
2023-03-02T13:43:40.800Z,14.89
2023-03-02T13:46:18.892Z,14.44
2023-03-02T13:49:10.217Z,14.00
2023-03-02T13:51:46.741Z,13.55
2023-03-02T13:54:22.647Z,13.54
2023-03-02T13:56:54.247Z,13.96
2023-03-02T13:59:25.834Z,14.35
2023-03-02T14:01:58.056Z,14.59
2023-03-02T14:04:29.702Z,14.35
2023-03-02T14:07:00.112Z,14.23
2023-03-02T14:09:29.941Z,14.27
2023-03-02T14:12:00.510Z,14.43
2023-03-02T14:14:41.193Z,14.40
2023-03-02T14:17:17.332Z,14.43
2023-03-02T14:19:52.919Z,14.11
2023-03-02T14:22:30.608Z,13.53
2023-03-02T14:25:01.394Z,13.01
2023-03-02T14:27:31.878Z,12.61
2023-03-02T14:30:13.303Z,12.41
2023-03-02T14:32:44.554Z,12.53
2023-03-02T14:35:16.208Z,12.61
2023-03-02T14:37:51.360Z,12.49
2023-03-02T14:40:29.393Z,12.29
2023-03-02T14:43:00.369Z,12.20
2023-03-02T14:45:31.827Z,12.17
2023-03-02T14:48:01.969Z,12.17
2023-03-02T14:50:36.843Z,12.14
2023-03-02T14:53:13.269Z,12.11
2023-03-02T14:55:45.244Z,12.11
2023-03-02T14:58:20.484Z,12.13
2023-03-02T15:00:51.560Z,12.09
2023-03-02T15:03:25.924Z,12.00
2023-03-02T15:06:02.082Z,11.83
2023-03-02T15:08:31.910Z,11.67
2023-03-02T15:11:00.909Z,11.59
2023-03-02T15:13:32.984Z,11.45
2023-03-02T15:16:03.209Z,11.28
2023-03-02T15:18:34.286Z,11.24
2023-03-02T15:21:06.219Z,11.17
2023-03-02T15:23:38.288Z,11.05
2023-03-02T15:26:09.802Z,10.84
2023-03-02T15:28:39.148Z,10.68
2023-03-02T15:31:16.362Z,10.44
2023-03-02T15:33:48.838Z,10.22
2023-03-02T15:36:18.497Z,9.89
2023-03-02T15:38:52.082Z,9.60
2023-03-02T15:41:23.663Z,9.42
2023-03-02T15:44:00.467Z,9.30
2023-03-02T15:46:38.286Z,9.05
2023-03-02T15:49:09.700Z,8.78
2023-03-02T15:51:41.230Z,8.48
2023-03-02T15:54:12.101Z,8.16
2023-03-02T15:56:45.313Z,7.95
2023-03-02T15:59:14.866Z,7.78
2023-03-02T16:01:45.353Z,7.59
2023-03-02T16:04:16.910Z,7.37
2023-03-02T16:06:50.652Z,7.11
2023-03-02T16:09:25.805Z,6.92
2023-03-02T16:11:56.876Z,6.71
2023-03-02T16:14:26.868Z,6.54
2023-03-02T16:16:57.645Z,6.39
2023-03-02T16:19:28.645Z,6.25
2023-03-02T16:21:59.568Z,6.01
2023-03-02T16:24:34.285Z,5.78
2023-03-02T16:27:07.370Z,5.62
2023-03-02T16:29:38.782Z,5.47
2023-03-02T16:32:11.538Z,5.36
2023-03-02T16:34:43.665Z,5.26
2023-03-02T16:37:14.916Z,5.07
2023-03-02T16:39:47.587Z,4.88
2023-03-02T16:42:19.086Z,4.73
2023-03-02T16:44:52.814Z,4.60
2023-03-02T16:47:23.180Z,4.46
2023-03-02T16:49:52.697Z,4.31
2023-03-02T16:52:23.335Z,4.12
2023-03-02T16:54:55.085Z,3.89
2023-03-02T16:57:28.044Z,3.68
2023-03-02T16:59:59.877Z,3.51
2023-03-02T17:02:31.020Z,3.43
2023-03-02T17:05:03.189Z,3.39
2023-03-02T17:07:37.019Z,3.38
2023-03-02T17:10:14.309Z,3.37
2023-03-02T17:12:47.496Z,3.36
2023-03-02T17:15:19.923Z,3.33
2023-03-02T17:17:54.213Z,3.30
2023-03-02T17:20:26.197Z,3.27
2023-03-02T17:22:57.403Z,3.25
2023-03-02T17:25:27.544Z,3.19
2023-03-02T17:27:59.499Z,3.09
2023-03-02T17:30:32.578Z,3.01
2023-03-02T17:33:03.762Z,2.94
2023-03-02T17:35:35.444Z,2.86
2023-03-02T17:38:06.566Z,2.82
2023-03-02T17:40:39.242Z,2.78
2023-03-02T17:43:16.852Z,2.72
2023-03-02T17:45:55.597Z,2.64
2023-03-02T17:48:34.997Z,2.56
2023-03-02T17:51:19.292Z,2.46
2023-03-02T17:53:53.903Z,2.36
2023-03-02T17:56:33.558Z,2.22
2023-03-02T17:59:07.160Z,2.09
2023-03-02T18:01:39.422Z,1.97
2023-03-02T18:04:10.398Z,1.89
2023-03-02T18:06:42.534Z,1.84
2023-03-02T18:09:14.621Z,1.79
2023-03-02T18:11:45.725Z,1.77
2023-03-02T18:14:22.457Z,1.76
2023-03-02T18:16:57.140Z,1.76
2023-03-02T18:19:30.916Z,1.73
2023-03-02T18:22:03.792Z,1.69
2023-03-02T18:24:37.842Z,1.66
2023-03-02T18:27:10.510Z,1.60
2023-03-02T18:29:45.610Z,1.51
2023-03-02T18:32:16.520Z,1.43
2023-03-02T18:34:49.005Z,1.33
2023-03-02T18:37:26.167Z,1.20
2023-03-02T18:40:04.481Z,1.09
2023-03-02T18:42:35.918Z,1.03
2023-03-02T18:45:09.395Z,1.00
2023-03-02T18:47:44.761Z,0.96
2023-03-02T18:50:20.280Z,0.95
2023-03-02T18:52:56.461Z,0.93
2023-03-02T18:55:28.840Z,0.86
2023-03-02T18:57:59.640Z,0.80
2023-03-02T19:00:31.920Z,0.74
2023-03-02T19:03:09.527Z,0.64
2023-03-02T19:05:44.857Z,0.60
2023-03-02T19:08:16.426Z,0.60
2023-03-02T19:10:52.184Z,0.60
2023-03-02T19:13:25.847Z,0.58
2023-03-02T19:16:03.804Z,0.55
2023-03-02T19:18:35.162Z,0.50
2023-03-02T19:21:08.854Z,0.46
2023-03-02T19:23:42.373Z,0.45
2023-03-02T19:26:13.298Z,0.47
2023-03-02T19:28:48.765Z,0.49
2023-03-02T19:31:36.812Z,0.47
2023-03-02T19:34:11.932Z,0.42
2023-03-02T19:36:44.805Z,0.36
2023-03-02T19:39:17.392Z,0.32
2023-03-02T19:41:54.892Z,0.29
2023-03-02T19:44:29.502Z,0.24
2023-03-02T19:47:02.666Z,0.19
2023-03-02T19:49:35.006Z,0.19
2023-03-02T19:52:11.668Z,0.21
2023-03-02T19:54:44.947Z,0.22
2023-03-02T19:57:21.596Z,0.19
2023-03-02T19:59:56.856Z,0.11
2023-03-02T20:02:35.583Z,0.05
2023-03-02T20:05:10.325Z,-0.01
2023-03-02T20:07:43.880Z,-0.07
2023-03-02T20:10:41.066Z,-0.11
2023-03-02T20:13:20.786Z,-0.18
2023-03-02T20:16:30.677Z,-0.23
2023-03-02T20:19:28.317Z,-0.25
2023-03-02T20:22:05.201Z,-0.26
2023-03-02T20:24:54.758Z,-0.24
2023-03-02T20:27:28.204Z,-0.24
2023-03-02T20:30:20.824Z,-0.27
2023-03-02T20:33:03.714Z,-0.32
2023-03-02T20:35:47.091Z,-0.42
2023-03-02T20:38:50.935Z,-0.49
2023-03-02T20:41:26.451Z,-0.53
2023-03-02T20:44:02.897Z,-0.54
2023-03-02T20:46:43.048Z,-0.55
2023-03-02T20:49:22.064Z,-0.59
2023-03-02T20:52:00.792Z,-0.63
2023-03-02T20:54:38.291Z,-0.69
2023-03-02T20:57:15.007Z,-0.77
2023-03-02T20:59:47.152Z,-0.84
2023-03-02T21:02:29.800Z,-0.86
2023-03-02T21:05:00.818Z,-0.86
2023-03-02T21:07:35.699Z,-0.89
2023-03-02T21:10:16.949Z,-0.91
2023-03-02T21:12:50.299Z,-0.93
2023-03-02T21:15:25.746Z,-0.92
2023-03-02T21:18:00.235Z,-0.91
2023-03-02T21:20:36.078Z,-0.90
2023-03-02T21:23:08.452Z,-0.89
2023-03-02T21:25:42.444Z,-0.89
2023-03-02T21:28:15.236Z,-0.88
2023-03-02T21:30:47.592Z,-0.86
2023-03-02T21:33:17.099Z,-0.84
2023-03-02T21:35:49.081Z,-0.82
2023-03-02T21:38:22.879Z,-0.80
2023-03-02T21:40:53.674Z,-0.79
2023-03-02T21:43:24.865Z,-0.80
2023-03-02T21:45:54.812Z,-0.81
2023-03-02T21:48:29.008Z,-0.82
2023-03-02T21:50:59.477Z,-0.82
2023-03-02T21:53:29.145Z,-0.80
2023-03-02T21:56:01.411Z,-0.77
2023-03-02T21:58:30.956Z,-0.75
2023-03-02T22:01:03.568Z,-0.75
2023-03-02T22:03:33.756Z,-0.75
2023-03-02T22:06:03.047Z,-0.74
2023-03-02T22:08:35.667Z,-0.72
2023-03-02T22:11:05.179Z,-0.71
2023-03-02T22:13:37.695Z,-0.72
2023-03-02T22:16:17.737Z,-0.73
2023-03-02T22:18:49.875Z,-0.74
2023-03-02T22:21:38.455Z,-0.74
2023-03-02T22:24:21.007Z,-0.73
2023-03-02T22:26:55.809Z,-0.73
2023-03-02T22:29:40.808Z,-0.75
2023-03-02T22:32:31.481Z,-0.80
2023-03-02T22:35:08.878Z,-0.84
2023-03-02T22:37:42.446Z,-0.86
2023-03-02T22:40:32.876Z,-0.86
2023-03-02T22:43:21.550Z,-0.90
2023-03-02T22:45:58.005Z,-0.91
2023-03-02T22:48:29.840Z,-0.93
2023-03-02T22:51:16.718Z,-0.95
2023-03-02T22:53:57.696Z,-1.00
2023-03-02T22:56:37.822Z,-1.04
2023-03-02T22:59:22.052Z,-1.06
2023-03-02T23:02:01.948Z,-1.06
2023-03-02T23:04:38.744Z,-1.07
2023-03-02T23:07:18.640Z,-1.07
2023-03-02T23:09:50.036Z,-1.08
2023-03-02T23:12:22.954Z,-1.10
2023-03-02T23:14:58.229Z,-1.12
2023-03-02T23:17:28.939Z,-1.14
2023-03-02T23:19:59.450Z,-1.17
2023-03-02T23:22:32.925Z,-1.19
2023-03-02T23:25:06.698Z,-1.20
2023-03-02T23:27:35.978Z,-1.21
2023-03-02T23:30:07.544Z,-1.20
2023-03-02T23:32:37.330Z,-1.19
2023-03-02T23:35:10.382Z,-1.19
2023-03-02T23:37:42.110Z,-1.20
2023-03-02T23:40:15.068Z,-1.23
2023-03-02T23:42:49.603Z,-1.27
2023-03-02T23:45:20.922Z,-1.27
2023-03-02T23:47:49.845Z,-1.29
2023-03-02T23:50:19.784Z,-1.30
2023-03-02T23:52:52.760Z,-1.29
2023-03-02T23:55:22.969Z,-1.32
2023-03-02T23:57:53.998Z,-1.35
